createdAt,value
2023-05-19T01:25:39.081Z,14.05
2023-05-19T01:28:43.777Z,12.35
2023-05-19T01:31:36.056Z,12.57
2023-05-19T01:34:24.034Z,13.13
2023-05-19T01:37:07.177Z,13.52
2023-05-19T01:39:54.991Z,12.07
2023-05-19T01:42:38.033Z,12.18
2023-05-19T01:45:26.006Z,12.75
2023-05-19T01:48:16.076Z,12.40
2023-05-19T01:51:04.024Z,12.82
2023-05-19T01:53:44.150Z,12.00
2023-05-19T01:57:06.052Z,12.52
2023-05-19T02:00:16.098Z,12.18
2023-05-19T02:03:15.002Z,12.52
2023-05-19T02:06:28.042Z,12.35
2023-05-19T02:09:23.031Z,11.95
2023-05-19T02:12:10.099Z,11.80
2023-05-19T02:15:01.950Z,12.75
2023-05-19T02:17:48.396Z,12.40
2023-05-19T02:20:35.171Z,13.23
2023-05-19T02:23:15.043Z,13.00
2023-05-19T02:26:08.968Z,12.60
2023-05-19T02:28:49.349Z,13.07
2023-05-19T02:31:35.998Z,12.73
2023-05-19T02:34:22.971Z,12.50
2023-05-19T02:37:03.150Z,13.55
2023-05-19T02:39:49.958Z,12.73
2023-05-19T02:42:36.961Z,13.45
2023-05-19T02:45:23.950Z,13.32
2023-05-19T02:48:04.209Z,12.27
2023-05-19T02:50:50.988Z,13.73
2023-05-19T02:53:37.965Z,13.90
2023-05-19T02:56:18.254Z,14.68
2023-05-19T02:59:04.993Z,13.15
2023-05-19T03:01:58.920Z,14.48
2023-05-19T03:04:42.146Z,13.57
2023-05-19T03:07:31.893Z,13.32
2023-05-19T03:10:18.898Z,13.63
2023-05-19T03:12:59.029Z,12.38
2023-05-19T03:15:45.955Z,14.73
2023-05-19T03:18:26.238Z,13.25
2023-05-19T03:21:12.926Z,11.98
2023-05-19T03:23:53.017Z,12.65
2023-05-19T03:26:39.913Z,13.43
2023-05-19T03:29:26.935Z,14.20
2023-05-19T03:32:07.546Z,13.57
2023-05-19T03:34:53.923Z,13.25
2023-05-19T03:37:34.382Z,13.35
2023-05-19T03:40:21.936Z,13.30
2023-05-19T03:43:09.327Z,12.93
2023-05-19T03:46:03.958Z,13.18
2023-05-19T03:49:04.296Z,14.05
2023-05-19T03:51:53.900Z,14.00
2023-05-19T03:54:42.430Z,13.20
2023-05-19T03:57:28.835Z,14.35
2023-05-19T04:00:17.848Z,14.63
2023-05-19T04:02:58.071Z,14.30
2023-05-19T04:05:44.834Z,13.75
2023-05-19T04:08:31.860Z,13.32
2023-05-19T04:11:12.471Z,13.02
2023-05-19T04:13:58.853Z,13.73
2023-05-19T04:16:39.382Z,14.40
2023-05-19T04:19:25.890Z,13.93
2023-05-19T04:22:06.233Z,14.07
2023-05-19T04:24:52.836Z,14.95
2023-05-19T04:27:36.663Z,14.68
2023-05-19T04:30:28.832Z,14.20
2023-05-19T04:33:12.062Z,14.38
2023-05-19T04:35:58.774Z,14.43
2023-05-19T04:38:48.817Z,14.60
2023-05-19T04:41:31.920Z,15.27
2023-05-19T04:44:20.813Z,15.20
2023-05-19T04:47:07.824Z,14.80
2023-05-19T04:49:54.809Z,16.05
2023-05-19T04:52:41.836Z,15.15
2023-05-19T04:55:22.183Z,14.95
2023-05-19T04:58:08.778Z,15.18
2023-05-19T05:00:51.289Z,14.40
2023-05-19T05:03:37.859Z,14.57
2023-05-19T05:06:18.194Z,16.20
2023-05-19T05:09:04.806Z,15.50
2023-05-19T05:11:45.514Z,14.82
2023-05-19T05:14:32.769Z,14.98
2023-05-19T05:17:20.766Z,15.85
2023-05-19T05:20:00.908Z,15.65
2023-05-19T05:22:48.796Z,15.75
2023-05-19T05:25:38.852Z,15.38
2023-05-19T05:28:20.733Z,17.02
2023-05-19T05:31:01.211Z,16.30
2023-05-19T05:33:48.810Z,15.93
2023-05-19T05:36:35.093Z,18.48
2023-05-19T05:39:22.764Z,17.80
2023-05-19T05:42:03.241Z,16.85
2023-05-19T05:44:49.801Z,17.70
2023-05-19T05:47:30.357Z,17.33
2023-05-19T05:50:17.754Z,17.33
2023-05-19T05:53:01.240Z,19.10
2023-05-19T05:55:50.701Z,18.85
2023-05-19T05:58:37.450Z,18.77
2023-05-19T06:01:24.765Z,18.97
2023-05-19T06:04:05.220Z,19.10
2023-05-19T06:06:51.697Z,18.45
2023-05-19T06:09:33.177Z,17.67
2023-05-19T06:12:21.717Z,18.45
2023-05-19T06:15:03.457Z,18.33
2023-05-19T06:18:03.731Z,18.67
2023-05-19T06:20:44.143Z,18.67
2023-05-19T06:23:31.768Z,19.38
2023-05-19T06:26:28.728Z,19.13
2023-05-19T06:29:09.092Z,19.25
2023-05-19T06:31:55.755Z,20.17
2023-05-19T06:34:44.703Z,20.05
2023-05-19T06:37:24.868Z,19.90
2023-05-19T06:40:12.703Z,20.00
2023-05-19T06:42:59.678Z,19.08
2023-05-19T06:46:04.674Z,20.60
2023-05-19T06:48:52.715Z,20.73
2023-05-19T06:51:42.733Z,19.90
2023-05-19T06:54:29.656Z,20.92
2023-05-19T06:57:10.006Z,20.27
2023-05-19T06:59:56.630Z,20.50
2023-05-19T07:02:43.790Z,21.45
2023-05-19T07:05:24.881Z,21.48
2023-05-19T07:08:14.694Z,20.58
2023-05-19T07:10:56.131Z,22.30
2023-05-19T07:13:42.682Z,21.55
2023-05-19T07:16:29.741Z,20.40
2023-05-19T07:19:16.884Z,20.88
2023-05-19T07:22:05.689Z,22.08
2023-05-19T07:24:59.644Z,20.83
2023-05-19T07:30:26.647Z,24.67
2023-05-19T07:46:00.487Z,22.67
2023-05-19T07:48:47.381Z,23.65
2023-05-19T07:51:34.333Z,22.90
2023-05-19T07:54:21.411Z,23.13
2023-05-19T07:57:08.390Z,24.17
2023-05-19T07:59:48.801Z,23.73
2023-05-19T08:02:35.477Z,22.77
2023-05-19T08:05:22.495Z,22.95
2023-05-19T08:08:04.408Z,23.92
2023-05-19T08:10:44.850Z,23.55
2023-05-19T08:13:31.400Z,24.08
2023-05-19T08:16:11.769Z,26.17
2023-05-19T08:18:58.375Z,23.85
2023-05-19T08:21:38.783Z,23.05
2023-05-19T08:24:25.398Z,24.42
2023-05-19T08:27:13.388Z,22.40
2023-05-19T08:30:01.360Z,24.35
2023-05-19T08:32:48.893Z,23.00
2023-05-19T08:35:28.370Z,24.42
2023-05-19T08:38:15.748Z,22.90
2023-05-19T08:40:55.385Z,23.08
2023-05-19T08:43:49.382Z,23.65
2023-05-19T08:46:36.416Z,23.98
2023-05-19T08:49:27.313Z,24.48
2023-05-19T08:52:34.333Z,24.92
2023-05-19T08:55:34.619Z,23.45
2023-05-19T08:58:16.436Z,24.55
2023-05-19T09:01:04.375Z,24.75
2023-05-19T09:03:46.140Z,23.70
2023-05-19T09:06:33.327Z,25.05
2023-05-19T09:09:13.729Z,24.48
2023-05-19T09:12:00.331Z,24.38
2023-05-19T09:14:40.821Z,23.40
2023-05-19T09:17:27.359Z,23.33
2023-05-19T09:20:17.318Z,25.88
2023-05-19T09:22:57.485Z,24.92
2023-05-19T09:25:53.388Z,24.23
2023-05-19T09:28:38.482Z,24.02
2023-05-19T09:31:25.350Z,23.45
2023-05-19T09:34:05.491Z,22.67
2023-05-19T09:36:56.257Z,22.92
2023-05-19T09:39:43.274Z,22.75
2023-05-19T09:42:27.270Z,22.58
2023-05-19T09:45:16.360Z,24.50
2023-05-19T09:48:03.399Z,23.25
2023-05-19T09:50:45.724Z,23.70
2023-05-19T09:53:32.272Z,21.98
2023-05-19T09:56:15.109Z,22.58
2023-05-19T09:59:02.313Z,21.48
2023-05-19T10:04:38.363Z,19.75
2023-05-19T10:07:22.224Z,21.15
2023-05-19T10:10:10.346Z,22.60
2023-05-19T10:12:50.778Z,21.00
2023-05-19T10:15:50.003Z,20.00
2023-05-19T10:18:46.266Z,19.92
2023-05-19T10:21:33.240Z,21.33
2023-05-19T10:24:13.448Z,20.63
2023-05-19T10:27:03.266Z,20.05
2023-05-19T10:29:53.203Z,20.42
2023-05-19T10:32:34.407Z,20.17
2023-05-19T10:35:21.229Z,20.13
2023-05-19T10:38:23.077Z,20.40
2023-05-19T10:41:34.248Z,20.17
2023-05-19T10:44:41.190Z,20.95
2023-05-19T10:47:28.341Z,20.17
2023-05-19T10:50:09.983Z,19.42
2023-05-19T10:52:57.214Z,20.13
2023-05-19T10:56:05.290Z,19.45
2023-05-19T10:58:59.249Z,19.92
2023-05-19T11:04:58.599Z,19.65
2023-05-19T11:07:49.199Z,21.23
2023-05-19T11:10:37.221Z,20.98
2023-05-19T11:13:22.673Z,19.90
2023-05-19T11:16:10.195Z,20.15
2023-05-19T11:18:57.454Z,20.52
2023-05-19T11:22:01.187Z,20.85
2023-05-19T11:24:48.076Z,21.65
2023-05-19T11:27:41.189Z,19.75
2023-05-19T11:30:21.693Z,20.10
2023-05-19T11:33:08.261Z,19.65
2023-05-19T11:35:51.187Z,19.67
2023-05-19T11:38:38.179Z,20.77
2023-05-19T11:41:20.132Z,20.23
2023-05-19T11:44:07.204Z,20.30
2023-05-19T11:46:47.687Z,19.67
2023-05-19T11:49:44.211Z,20.70
2023-05-19T11:52:26.018Z,19.63
2023-05-19T11:55:16.149Z,19.88
2023-05-19T11:58:11.175Z,19.98
2023-05-19T12:00:52.736Z,19.92
2023-05-19T12:03:39.210Z,19.75
2023-05-19T12:06:26.185Z,19.98
2023-05-19T12:09:07.555Z,19.63
2023-05-19T12:11:54.132Z,20.35
2023-05-19T12:14:42.162Z,20.60
2023-05-19T12:17:24.458Z,20.33
2023-05-19T12:20:12.104Z,19.92
2023-05-19T12:22:54.221Z,19.33
2023-05-19T12:25:41.161Z,19.50
2023-05-19T12:28:23.220Z,19.65
2023-05-19T12:31:10.173Z,18.98
2023-05-19T12:33:53.435Z,17.92
2023-05-19T12:36:40.107Z,17.98
2023-05-19T12:39:21.546Z,19.25
2023-05-19T12:42:14.146Z,18.73
2023-05-19T12:44:57.439Z,18.10
2023-05-19T12:47:44.172Z,19.63
2023-05-19T12:50:24.229Z,18.58
2023-05-19T12:53:16.071Z,19.55
2023-05-19T12:55:59.195Z,20.42
2023-05-19T12:58:46.107Z,17.83
2023-05-19T13:01:26.335Z,17.70
2023-05-19T13:04:13.187Z,18.10
2023-05-19T13:06:53.330Z,17.38
2023-05-19T13:09:42.078Z,17.63
2023-05-19T13:12:22.218Z,19.98
2023-05-19T13:15:09.088Z,18.27
2023-05-19T13:17:49.206Z,18.95
2023-05-19T13:20:36.216Z,18.27
2023-05-19T13:23:20.246Z,18.00
2023-05-19T13:26:07.060Z,18.58
2023-05-19T13:28:54.065Z,18.63
2023-05-19T13:31:34.621Z,18.15
2023-05-19T13:34:21.065Z,18.77
2023-05-19T13:37:10.010Z,18.27
2023-05-19T13:39:50.075Z,19.05
2023-05-19T13:42:32.764Z,17.50
2023-05-19T13:45:20.076Z,18.38
2023-05-19T13:48:00.586Z,20.83
2023-05-19T13:50:47.022Z,20.33
2023-05-19T13:53:27.424Z,18.98
2023-05-19T13:56:14.041Z,19.48
2023-05-19T13:59:02.169Z,18.58
2023-05-19T14:01:49.162Z,19.80
2023-05-19T14:04:36.303Z,17.77
2023-05-19T14:07:17.019Z,18.88
2023-05-19T14:10:05.615Z,19.60
2023-05-19T14:13:12.385Z,18.27
2023-05-19T14:15:46.473Z,21.15
2023-05-19T14:18:32.999Z,18.60
2023-05-19T14:21:20.012Z,17.85
2023-05-19T14:24:01.524Z,18.65
2023-05-19T14:26:47.994Z,18.55
2023-05-19T14:29:28.169Z,18.88
2023-05-19T14:32:14.983Z,19.38
2023-05-19T14:35:01.950Z,19.55
2023-05-19T14:37:42.449Z,18.88
2023-05-19T14:40:28.942Z,19.63
2023-05-19T14:43:15.969Z,21.65
2023-05-19T14:46:03.144Z,19.80
2023-05-19T14:48:42.981Z,21.77
2023-05-19T14:51:23.480Z,19.65
2023-05-19T14:54:09.995Z,17.70
2023-05-19T14:56:50.310Z,18.90
2023-05-19T14:59:36.950Z,18.60
2023-05-19T15:02:23.992Z,17.80
2023-05-19T15:05:10.964Z,17.90
2023-05-19T15:07:51.625Z,18.70
2023-05-19T15:10:37.959Z,20.25
2023-05-19T15:13:25.958Z,19.80
2023-05-19T15:16:17.510Z,20.05
2023-05-19T15:18:58.322Z,19.85
2023-05-19T15:21:45.033Z,19.05
2023-05-19T15:24:31.950Z,19.40
2023-05-19T15:27:12.071Z,20.33
2023-05-19T15:29:58.954Z,19.23
2023-05-19T15:32:39.132Z,20.40
2023-05-19T15:35:25.929Z,19.80
2023-05-19T15:38:06.486Z,19.35
2023-05-19T15:40:53.913Z,18.80
2023-05-19T15:43:34.156Z,18.75
2023-05-19T15:46:23.026Z,18.83
2023-05-19T15:49:03.647Z,17.58
2023-05-19T15:51:51.882Z,17.77
2023-05-19T15:54:31.966Z,18.45
2023-05-19T15:57:19.924Z,18.80
2023-05-19T15:59:59.998Z,18.20
2023-05-19T16:02:46.983Z,18.80
2023-05-19T16:05:27.007Z,18.50
2023-05-19T16:08:13.871Z,18.23
2023-05-19T16:11:01.899Z,18.58
2023-05-19T16:13:48.911Z,18.23
2023-05-19T16:16:35.938Z,19.50
2023-05-19T16:19:22.878Z,18.80
2023-05-19T16:22:09.926Z,18.85
2023-05-19T16:24:57.882Z,18.65
2023-05-19T16:27:38.009Z,19.35
2023-05-19T16:30:24.882Z,18.55
2023-05-19T16:33:11.913Z,19.27
2023-05-19T16:35:52.284Z,18.52
2023-05-19T16:38:38.882Z,18.63
2023-05-19T16:41:19.221Z,18.55
2023-05-19T16:44:05.880Z,18.45
2023-05-19T16:46:52.992Z,17.98
2023-05-19T16:49:32.881Z,18.90
2023-05-19T16:52:19.862Z,18.40
2023-05-19T16:55:06.879Z,19.02
2023-05-19T16:57:47.440Z,19.52
2023-05-19T17:00:36.131Z,18.83
2023-05-19T17:03:16.322Z,18.90
2023-05-19T17:06:02.852Z,19.13
2023-05-19T17:08:43.218Z,19.08
2023-05-19T17:11:30.044Z,19.33
2023-05-19T17:14:10.192Z,18.25
2023-05-19T17:16:56.902Z,19.55
2023-05-19T17:19:37.171Z,18.48
2023-05-19T17:22:23.822Z,18.67
2023-05-19T17:25:10.810Z,18.73
2023-05-19T17:27:58.805Z,19.00
2023-05-19T17:30:42.367Z,18.15
2023-05-19T17:33:28.841Z,19.95
2023-05-19T17:36:09.585Z,18.40
2023-05-19T17:38:56.798Z,18.38
2023-05-19T17:41:37.210Z,19.33
2023-05-19T17:44:23.780Z,18.92
2023-05-19T17:47:17.798Z,18.83
2023-05-19T17:49:58.093Z,18.55
2023-05-19T17:52:44.831Z,18.27
2023-05-19T17:55:29.883Z,18.58
2023-05-19T17:58:16.779Z,19.08
2023-05-19T18:01:03.849Z,18.77
2023-05-19T18:03:43.982Z,18.88
2023-05-19T18:06:25.411Z,19.10
2023-05-19T18:09:16.755Z,18.73
2023-05-19T18:12:11.789Z,18.73
2023-05-19T18:14:52.136Z,19.05
2023-05-19T18:17:38.850Z,18.17
2023-05-19T18:20:19.188Z,18.52
2023-05-19T18:23:05.771Z,17.75
2023-05-19T18:25:56.897Z,17.98
2023-05-19T18:28:36.762Z,18.10
2023-05-19T18:31:19.827Z,18.35
2023-05-19T18:34:06.748Z,19.05
2023-05-19T18:36:47.135Z,17.95
2023-05-19T18:39:33.759Z,19.15
2023-05-19T18:42:14.178Z,18.98
2023-05-19T18:45:00.752Z,19.52
2023-05-19T18:47:41.455Z,20.38
2023-05-19T18:50:28.696Z,19.05
2023-05-19T18:53:15.730Z,19.27
2023-05-19T18:56:02.764Z,19.00
2023-05-19T18:58:43.156Z,18.02
2023-05-19T19:01:29.740Z,19.55
2023-05-19T19:04:16.760Z,19.55
2023-05-19T19:07:03.702Z,19.00
2023-05-19T19:09:50.799Z,19.15
2023-05-19T19:12:30.838Z,17.77
2023-05-19T19:15:18.676Z,18.10
2023-05-19T19:17:59.803Z,18.75
2023-05-19T19:20:46.728Z,17.92
2023-05-19T19:23:33.713Z,17.98
2023-05-19T19:26:20.725Z,17.83
2023-05-19T19:29:08.657Z,17.73
2023-05-19T19:31:49.255Z,17.25
2023-05-19T19:47:16.614Z,17.60
2023-05-19T19:50:03.648Z,18.77
2023-05-19T19:52:43.882Z,18.38
2023-05-19T19:55:30.623Z,17.92
2023-05-19T19:58:10.717Z,17.70
2023-05-19T20:01:05.590Z,18.25
2023-05-19T20:03:45.907Z,17.83
2023-05-19T20:06:32.584Z,17.98
2023-05-19T20:09:19.627Z,17.13
2023-05-19T20:11:59.947Z,17.85
2023-05-19T20:14:46.516Z,16.85
2023-05-19T20:17:33.520Z,17.65
2023-05-19T20:20:20.585Z,16.70
2023-05-19T20:23:07.618Z,17.02
2023-05-19T20:26:02.938Z,17.73
2023-05-19T20:28:54.600Z,16.98
2023-05-19T20:31:34.686Z,16.80
2023-05-19T20:34:21.644Z,17.48
2023-05-19T20:37:08.534Z,17.33
2023-05-19T20:39:49.010Z,17.98
2023-05-19T20:42:35.538Z,18.00
2023-05-19T20:45:29.577Z,17.10
2023-05-19T20:48:17.597Z,17.50
2023-05-19T20:50:57.719Z,17.60
2023-05-19T20:53:44.490Z,17.63
2023-05-19T20:56:25.644Z,17.13
2023-05-19T20:59:12.484Z,17.88
2023-05-19T21:01:59.508Z,17.20
2023-05-19T21:04:40.006Z,17.90
2023-05-19T21:07:26.505Z,16.95
2023-05-19T21:10:14.508Z,17.27
2023-05-19T21:13:01.536Z,17.98
2023-05-19T21:15:48.625Z,17.55
2023-05-19T21:18:28.492Z,16.80
2023-05-19T21:21:15.669Z,17.80
2023-05-19T21:23:55.542Z,18.63
2023-05-19T21:26:35.876Z,18.60
2023-05-19T21:29:22.542Z,17.70
2023-05-19T21:32:02.920Z,17.20
2023-05-19T21:34:49.490Z,17.15
2023-05-19T21:37:29.870Z,15.70
2023-05-19T21:40:16.550Z,15.73
2023-05-19T21:43:03.585Z,16.98
2023-05-19T21:45:50.417Z,17.45
2023-05-19T21:48:31.065Z,16.27
2023-05-19T21:51:17.476Z,16.30
2023-05-19T21:53:57.584Z,17.95
2023-05-19T21:56:44.443Z,17.60
2023-05-19T21:59:24.905Z,16.70
2023-05-19T22:02:12.649Z,17.63
2023-05-19T22:04:52.573Z,17.58
2023-05-19T22:07:39.480Z,17.60
2023-05-19T22:10:19.518Z,16.92
2023-05-19T22:13:06.423Z,16.90
2023-05-19T22:15:46.696Z,17.08
2023-05-19T22:18:33.441Z,17.45
2023-05-19T22:21:13.625Z,17.48
2023-05-19T22:24:00.446Z,17.27
2023-05-19T22:26:42.858Z,17.52
2023-05-19T22:29:29.406Z,18.50
2023-05-19T22:32:18.362Z,16.48
2023-05-19T22:35:05.358Z,17.23
2023-05-19T22:37:45.452Z,16.92
2023-05-19T22:40:32.772Z,17.27
2023-05-19T22:43:12.487Z,16.85
2023-05-19T22:45:59.437Z,16.60
2023-05-19T22:48:46.401Z,17.35
2023-05-19T22:51:33.366Z,16.38
2023-05-19T22:54:13.533Z,16.67
2023-05-19T22:57:00.384Z,17.35
2023-05-19T22:59:41.371Z,16.83
2023-05-19T23:02:28.363Z,16.70
2023-05-19T23:05:08.432Z,17.33
2023-05-19T23:07:55.367Z,17.25
2023-05-19T23:10:35.663Z,16.67
2023-05-19T23:13:22.344Z,17.25
2023-05-19T23:16:09.387Z,16.33
2023-05-19T23:18:56.379Z,18.52
2023-05-19T23:21:44.296Z,16.40
2023-05-19T23:24:31.377Z,18.70
2023-05-19T23:27:11.420Z,18.23
2023-05-19T23:29:58.361Z,17.33
2023-05-19T23:32:38.577Z,17.65
2023-05-19T23:35:26.348Z,17.23
2023-05-19T23:38:06.467Z,16.98
2023-05-19T23:40:53.345Z,17.02
2023-05-19T23:43:40.321Z,16.50
2023-05-19T23:46:34.470Z,17.08
2023-05-19T23:49:21.330Z,17.00
2023-05-19T23:52:01.400Z,17.80
2023-05-19T23:54:48.326Z,16.95
2023-05-19T23:57:28.407Z,17.65
